createdAt,value
2018-03-07T00:00:58.956Z,0.00
2018-03-07T00:01:58.820Z,0.00
2018-03-07T00:02:58.689Z,0.00
2018-03-07T00:03:58.560Z,0.00
2018-03-07T00:04:58.431Z,0.00
2018-03-07T00:05:58.298Z,0.00
2018-03-07T00:06:58.168Z,0.00
2018-03-07T00:07:58.040Z,0.00
2018-03-07T00:08:57.909Z,0.00
2018-03-07T00:09:57.781Z,0.00
2018-03-07T00:10:57.646Z,0.00
2018-03-07T00:11:57.517Z,0.00
2018-03-07T00:12:57.388Z,0.00
2018-03-07T00:13:57.253Z,0.00
2018-03-07T00:14:57.125Z,0.00
2018-03-07T00:15:56.993Z,0.00
2018-03-07T00:16:56.862Z,0.00
2018-03-07T00:17:56.732Z,0.00
2018-03-07T00:18:56.603Z,0.00
2018-03-07T00:19:56.470Z,0.00
2018-03-07T00:20:56.342Z,0.00
2018-03-07T00:21:56.210Z,0.00
2018-03-07T00:22:56.081Z,0.00
2018-03-07T00:23:55.952Z,0.00
2018-03-07T00:24:55.818Z,0.00
2018-03-07T00:25:55.689Z,0.00
2018-03-07T00:26:55.565Z,0.00
2018-03-07T00:27:55.427Z,0.00
2018-03-07T00:28:55.297Z,0.00
2018-03-07T00:29:55.167Z,0.00
2018-03-07T00:30:55.039Z,0.00
2018-03-07T00:31:54.906Z,0.00
2018-03-07T00:32:54.777Z,0.00
2018-03-07T00:33:54.641Z,0.00
2018-03-07T00:34:54.511Z,0.00
2018-03-07T00:35:54.381Z,0.00
2018-03-07T00:36:54.251Z,0.00
2018-03-07T00:37:54.117Z,0.00
2018-03-07T00:38:53.988Z,0.00
2018-03-07T00:39:53.863Z,0.00
2018-03-07T00:40:53.726Z,0.00
2018-03-07T00:41:53.596Z,0.00
2018-03-07T00:42:53.468Z,0.00
2018-03-07T00:43:53.334Z,0.00
2018-03-07T00:44:53.203Z,0.00
2018-03-07T00:45:53.074Z,0.00
2018-03-07T00:46:52.940Z,0.00
2018-03-07T00:47:52.807Z,0.00
2018-03-07T00:48:52.679Z,0.00
2018-03-07T00:49:52.546Z,0.00
2018-03-07T00:50:52.417Z,0.00
2018-03-07T00:51:52.283Z,0.00
2018-03-07T00:52:52.153Z,0.00
2018-03-07T00:53:52.021Z,0.00
2018-03-07T00:54:51.891Z,0.00
2018-03-07T00:55:51.759Z,0.00
2018-03-07T00:56:51.629Z,0.00
2018-03-07T00:57:51.494Z,0.00
2018-03-07T00:58:51.366Z,0.00
2018-03-07T00:59:51.234Z,0.00
2018-03-07T01:00:51.103Z,0.00
2018-03-07T01:01:50.972Z,0.00
2018-03-07T01:02:50.841Z,0.00
2018-03-07T01:03:50.708Z,0.00
2018-03-07T01:04:50.577Z,0.00
2018-03-07T01:05:50.444Z,0.00
2018-03-07T01:06:50.317Z,0.00
2018-03-07T01:07:50.185Z,0.00
2018-03-07T01:08:50.053Z,0.00
2018-03-07T01:09:49.921Z,0.00
2018-03-07T01:10:49.792Z,0.00
2018-03-07T01:11:49.660Z,0.00
2018-03-07T01:12:49.532Z,0.00
2018-03-07T01:13:49.396Z,0.00
2018-03-07T01:14:49.265Z,0.00
2018-03-07T01:15:49.137Z,0.00
2018-03-07T01:16:49.006Z,0.00
2018-03-07T01:17:48.888Z,0.00
2018-03-07T01:18:48.741Z,0.00
2018-03-07T01:19:48.613Z,0.00
2018-03-07T01:20:48.481Z,0.00
2018-03-07T01:21:48.348Z,0.00
2018-03-07T01:22:48.216Z,0.00
2018-03-07T01:23:48.085Z,0.00
2018-03-07T01:24:47.956Z,0.00
2018-03-07T01:25:47.822Z,0.00
2018-03-07T01:26:47.698Z,0.00
2018-03-07T01:27:47.560Z,0.00
2018-03-07T01:28:47.429Z,0.00
2018-03-07T01:29:47.299Z,0.00
2018-03-07T01:30:47.165Z,0.00
2018-03-07T01:31:47.034Z,0.00
2018-03-07T01:32:46.908Z,0.00
2018-03-07T01:33:46.771Z,0.00
2018-03-07T01:34:46.643Z,0.00
2018-03-07T01:35:46.511Z,0.00
2018-03-07T01:36:46.382Z,0.00
2018-03-07T01:37:46.248Z,0.00
2018-03-07T01:38:46.115Z,0.00
2018-03-07T01:39:45.986Z,0.00
2018-03-07T01:40:45.858Z,0.00
2018-03-07T01:41:45.722Z,0.00
2018-03-07T01:42:45.595Z,0.00
2018-03-07T01:43:45.462Z,0.00
2018-03-07T01:44:45.334Z,0.00
2018-03-07T01:45:45.198Z,0.00
2018-03-07T01:46:45.067Z,0.00
2018-03-07T01:47:44.937Z,0.00
2018-03-07T01:48:44.805Z,0.00
2018-03-07T01:49:44.671Z,0.00
2018-03-07T01:50:44.542Z,0.00
2018-03-07T01:51:44.412Z,0.00
2018-03-07T01:52:44.279Z,0.00
2018-03-07T01:53:44.150Z,0.00
2018-03-07T01:54:44.021Z,0.00
2018-03-07T01:55:43.891Z,0.00
2018-03-07T01:56:43.756Z,0.00
2018-03-07T01:57:43.623Z,0.00
2018-03-07T01:58:43.492Z,0.00
2018-03-07T01:59:43.362Z,0.00
2018-03-07T02:00:43.232Z,0.00
2018-03-07T02:01:43.103Z,0.00
2018-03-07T02:02:42.973Z,0.00
2018-03-07T02:03:42.839Z,0.00
2018-03-07T02:04:42.707Z,0.00
2018-03-07T02:05:42.580Z,0.00
2018-03-07T02:06:42.447Z,0.00
2018-03-07T02:07:42.314Z,0.00
2018-03-07T02:08:42.182Z,0.00
2018-03-07T02:09:42.051Z,0.00
2018-03-07T02:10:41.924Z,0.00
2018-03-07T02:11:41.788Z,0.00
2018-03-07T02:12:41.658Z,0.00
2018-03-07T02:13:41.526Z,0.00
2018-03-07T02:14:41.398Z,0.00
2018-03-07T02:15:41.264Z,0.00
2018-03-07T02:16:41.133Z,0.00
2018-03-07T02:17:41.011Z,0.00
2018-03-07T02:18:40.873Z,0.00
2018-03-07T02:19:40.738Z,0.00
2018-03-07T02:20:40.608Z,0.00
2018-03-07T02:21:40.475Z,0.00
2018-03-07T02:22:40.346Z,0.00
2018-03-07T02:23:40.213Z,0.00
2018-03-07T02:24:40.082Z,0.00
2018-03-07T02:25:39.947Z,0.00
2018-03-07T02:26:39.815Z,0.00
2018-03-07T02:27:39.685Z,0.00
2018-03-07T02:28:39.553Z,0.00
2018-03-07T02:29:39.435Z,0.00
2018-03-07T02:30:39.292Z,0.00
2018-03-07T02:31:39.157Z,0.00
2018-03-07T02:32:39.038Z,0.00
2018-03-07T02:33:38.892Z,0.00
2018-03-07T02:34:38.764Z,0.00
2018-03-07T02:35:38.632Z,0.00
2018-03-07T02:36:38.505Z,0.00
2018-03-07T02:37:38.379Z,0.00
2018-03-07T02:38:38.237Z,0.00
2018-03-07T02:39:38.112Z,0.00
2018-03-07T02:40:37.976Z,0.00
2018-03-07T02:41:37.845Z,0.00
2018-03-07T02:42:37.714Z,0.00
2018-03-07T02:43:37.580Z,0.00
2018-03-07T02:44:37.450Z,0.00
2018-03-07T02:45:37.319Z,0.00
2018-03-07T02:46:37.186Z,0.00
2018-03-07T02:47:37.055Z,0.00
2018-03-07T02:48:36.924Z,0.00
2018-03-07T02:49:36.841Z,0.00
2018-03-07T02:50:36.665Z,0.00
2018-03-07T02:51:36.534Z,0.00
2018-03-07T02:52:36.400Z,0.00
2018-03-07T02:53:36.266Z,0.00
2018-03-07T02:54:36.139Z,0.00
2018-03-07T02:55:36.006Z,0.00
2018-03-07T02:56:35.876Z,0.00
2018-03-07T02:57:35.743Z,0.00
2018-03-07T02:58:35.612Z,0.00
2018-03-07T02:59:35.481Z,0.00
2018-03-07T03:00:35.349Z,0.00
2018-03-07T03:01:35.218Z,0.00
2018-03-07T03:02:35.083Z,0.00
2018-03-07T03:03:34.991Z,0.00
2018-03-07T03:04:34.825Z,0.00
2018-03-07T03:05:34.697Z,0.00
2018-03-07T03:06:34.561Z,0.00
2018-03-07T03:07:34.430Z,0.00
2018-03-07T03:08:34.296Z,0.00
2018-03-07T03:09:34.164Z,0.00
2018-03-07T03:10:34.032Z,0.00
2018-03-07T03:11:33.946Z,0.00
2018-03-07T03:12:33.773Z,0.00
2018-03-07T03:13:33.640Z,0.00
2018-03-07T03:14:33.509Z,0.00
2018-03-07T03:15:33.376Z,0.00
2018-03-07T03:16:33.245Z,0.00
2018-03-07T03:17:33.110Z,0.00
2018-03-07T03:18:32.979Z,0.00
2018-03-07T03:19:32.849Z,0.00
2018-03-07T03:20:32.716Z,0.00
2018-03-07T03:21:32.584Z,0.00
2018-03-07T03:22:32.453Z,0.00
2018-03-07T03:23:32.322Z,0.00
2018-03-07T03:24:32.190Z,0.00
2018-03-07T03:25:32.062Z,0.00
2018-03-07T03:26:31.927Z,0.00
2018-03-07T03:27:31.794Z,0.00
2018-03-07T03:28:31.662Z,0.00
2018-03-07T03:29:31.530Z,0.00
2018-03-07T03:30:31.401Z,0.00
2018-03-07T03:31:31.269Z,0.00
2018-03-07T03:32:31.140Z,0.00
2018-03-07T03:33:31.003Z,0.00
2018-03-07T03:34:30.874Z,0.00
2018-03-07T03:35:30.740Z,0.00
2018-03-07T03:36:30.609Z,0.00
2018-03-07T03:37:30.476Z,0.00
2018-03-07T03:38:30.344Z,0.00
2018-03-07T03:39:30.215Z,0.00
2018-03-07T03:40:30.082Z,0.00
2018-03-07T03:41:29.951Z,0.00
2018-03-07T03:42:29.820Z,0.00
2018-03-07T03:43:29.688Z,0.00
2018-03-07T03:44:29.557Z,0.00
2018-03-07T03:45:29.425Z,0.00
2018-03-07T03:46:29.291Z,0.00
2018-03-07T03:47:29.162Z,0.00
2018-03-07T03:48:29.029Z,0.00
2018-03-07T03:49:28.899Z,0.00
2018-03-07T03:50:28.767Z,0.00
2018-03-07T03:51:28.637Z,0.00
2018-03-07T03:52:28.506Z,0.00
2018-03-07T03:53:28.373Z,0.00
2018-03-07T03:54:28.247Z,0.00
2018-03-07T03:55:28.111Z,0.00
2018-03-07T03:56:27.981Z,0.00
2018-03-07T03:57:27.854Z,0.00
2018-03-07T03:58:27.722Z,0.00
2018-03-07T03:59:27.588Z,0.00
2018-03-07T04:00:27.457Z,0.00
2018-03-07T04:01:27.324Z,0.00
2018-03-07T04:02:27.192Z,0.00
2018-03-07T04:03:27.062Z,0.00
2018-03-07T04:04:26.929Z,0.00
2018-03-07T04:05:26.798Z,0.00
2018-03-07T04:06:26.668Z,0.00
2018-03-07T04:07:26.536Z,0.00
2018-03-07T04:08:26.403Z,0.00
2018-03-07T04:09:26.270Z,0.00
2018-03-07T04:10:26.139Z,0.00
2018-03-07T04:11:26.007Z,0.00
2018-03-07T04:12:25.876Z,0.00
2018-03-07T04:13:25.745Z,0.00
2018-03-07T04:14:25.616Z,0.00
2018-03-07T04:15:25.480Z,0.00
2018-03-07T04:16:25.349Z,0.00
2018-03-07T04:17:25.218Z,0.00
2018-03-07T04:18:25.083Z,0.00
2018-03-07T04:19:24.952Z,0.00
2018-03-07T04:20:24.822Z,0.00
2018-03-07T04:21:24.695Z,0.00
2018-03-07T04:22:24.563Z,0.00
2018-03-07T04:23:24.427Z,0.00
2018-03-07T04:24:24.294Z,0.00
2018-03-07T04:25:24.162Z,0.00
2018-03-07T04:26:24.031Z,0.00
2018-03-07T04:27:23.898Z,0.00
2018-03-07T04:28:23.766Z,0.00
2018-03-07T04:29:23.637Z,0.00
2018-03-07T04:30:23.504Z,0.00
2018-03-07T04:31:23.370Z,0.00
2018-03-07T04:32:23.241Z,0.00
2018-03-07T04:33:23.107Z,0.00
2018-03-07T04:34:22.979Z,0.00
2018-03-07T04:35:22.843Z,0.00
2018-03-07T04:36:22.718Z,0.00
2018-03-07T04:37:22.578Z,0.00
2018-03-07T04:38:22.453Z,0.00
2018-03-07T04:39:22.316Z,0.00
2018-03-07T04:40:22.186Z,0.00
2018-03-07T04:41:22.053Z,0.00
2018-03-07T04:42:21.920Z,0.00
2018-03-07T04:43:21.789Z,0.00
2018-03-07T04:44:21.655Z,0.00
2018-03-07T04:45:21.523Z,0.00
2018-03-07T04:46:21.392Z,0.00
2018-03-07T04:47:21.258Z,0.00
2018-03-07T04:48:21.127Z,0.00
2018-03-07T04:49:20.996Z,0.00
2018-03-07T04:50:20.863Z,0.00
2018-03-07T04:51:20.732Z,0.00
2018-03-07T04:52:20.606Z,0.00
2018-03-07T04:53:20.466Z,0.00
2018-03-07T04:54:20.337Z,0.00
2018-03-07T04:55:20.208Z,0.00
2018-03-07T04:56:20.076Z,0.00
2018-03-07T04:57:19.940Z,0.00
2018-03-07T04:58:19.808Z,0.00
2018-03-07T04:59:19.678Z,0.00
2018-03-07T05:00:19.544Z,0.00
2018-03-07T05:01:19.411Z,0.00
2018-03-07T05:02:19.283Z,0.00
2018-03-07T05:03:19.153Z,0.00
2018-03-07T05:04:19.016Z,0.00
2018-03-07T05:05:18.894Z,0.00
2018-03-07T05:06:18.758Z,0.00
2018-03-07T05:07:18.621Z,0.00
2018-03-07T05:08:18.490Z,0.00
2018-03-07T05:09:18.359Z,0.00
2018-03-07T05:10:18.229Z,0.00
2018-03-07T05:11:18.138Z,0.00
2018-03-07T05:12:17.962Z,0.00
2018-03-07T05:13:17.828Z,0.00
2018-03-07T05:14:17.826Z,0.00
2018-03-07T05:15:17.570Z,0.00
2018-03-07T05:16:17.434Z,0.00
2018-03-07T05:17:17.300Z,0.00
2018-03-07T05:18:17.169Z,0.00
2018-03-07T05:19:17.036Z,0.00
2018-03-07T05:20:16.915Z,0.00
2018-03-07T05:21:16.776Z,0.00
2018-03-07T05:22:16.642Z,0.00
2018-03-07T05:23:16.510Z,0.00
2018-03-07T05:24:16.379Z,0.00
2018-03-07T05:25:16.245Z,0.00
2018-03-07T05:26:16.112Z,4.00
2018-03-07T05:27:15.982Z,4.00
2018-03-07T05:28:15.853Z,0.00
2018-03-07T05:29:15.721Z,4.00
2018-03-07T05:30:15.590Z,4.00
2018-03-07T05:31:15.458Z,4.00
2018-03-07T05:32:15.327Z,4.00
2018-03-07T05:33:15.198Z,4.00
2018-03-07T05:34:15.064Z,12.00
2018-03-07T05:35:14.964Z,12.00
2018-03-07T05:36:14.799Z,12.00
2018-03-07T05:37:14.669Z,12.00
2018-03-07T05:38:14.750Z,16.00
2018-03-07T05:39:14.407Z,20.00
2018-03-07T05:40:14.276Z,24.00
2018-03-07T05:41:14.146Z,24.00
2018-03-07T05:42:14.018Z,28.00
2018-03-07T05:43:13.883Z,36.00
2018-03-07T05:44:13.751Z,40.00
2018-03-07T05:45:13.651Z,44.00
2018-03-07T05:46:13.488Z,48.00
2018-03-07T05:47:13.401Z,56.00
2018-03-07T05:48:13.440Z,64.00
2018-03-07T05:49:13.094Z,72.00
2018-03-07T05:50:12.963Z,80.00
2018-03-07T05:51:12.833Z,88.00
2018-03-07T05:52:12.705Z,96.00
2018-03-07T05:53:12.576Z,104.00
2018-03-07T05:54:12.437Z,112.00
2018-03-07T05:55:12.319Z,124.00
2018-03-07T05:56:12.176Z,136.00
2018-03-07T05:57:12.046Z,148.00
2018-03-07T05:58:11.915Z,160.00
2018-03-07T05:59:11.784Z,168.00
2018-03-07T06:00:11.652Z,180.00
2018-03-07T06:01:11.521Z,192.00
2018-03-07T06:02:11.390Z,204.00
2018-03-07T06:03:11.256Z,220.00
2018-03-07T06:04:11.128Z,232.00
2018-03-07T06:05:10.995Z,240.00
2018-03-07T06:06:10.865Z,256.00
2018-03-07T06:07:10.731Z,260.00
2018-03-07T06:08:10.602Z,268.00
2018-03-07T06:09:10.472Z,276.00
2018-03-07T06:10:10.339Z,284.00
2018-03-07T06:11:10.211Z,292.00
2018-03-07T06:12:10.075Z,308.00
2018-03-07T06:13:09.941Z,324.00
2018-03-07T06:14:09.816Z,340.00
2018-03-07T06:15:09.677Z,360.00
2018-03-07T06:16:09.547Z,380.00
2018-03-07T06:17:09.415Z,400.00
2018-03-07T06:18:09.285Z,412.00
2018-03-07T06:19:09.155Z,436.00
2018-03-07T06:20:09.021Z,476.00
2018-03-07T06:21:08.890Z,508.00
2018-03-07T06:22:08.758Z,544.00
2018-03-07T06:23:08.628Z,580.00
2018-03-07T06:24:08.495Z,612.00
2018-03-07T06:25:08.362Z,624.00
2018-03-07T06:26:08.232Z,624.00
2018-03-07T06:27:08.101Z,624.00
2018-03-07T06:28:07.975Z,616.00
2018-03-07T06:29:07.840Z,580.00
2018-03-07T06:30:07.705Z,600.00
2018-03-07T06:31:07.578Z,628.00
2018-03-07T06:32:07.444Z,676.00
2018-03-07T06:33:07.315Z,716.00
2018-03-07T06:34:07.236Z,784.00
2018-03-07T06:35:07.046Z,888.00
2018-03-07T06:36:06.916Z,1016.00
2018-03-07T06:37:06.783Z,1084.00
2018-03-07T06:38:06.653Z,1096.00
2018-03-07T06:39:06.523Z,1040.00
2018-03-07T06:40:06.390Z,1064.00
2018-03-07T06:41:06.273Z,1080.00
2018-03-07T06:42:06.128Z,1112.00
2018-03-07T06:43:05.996Z,1136.00
2018-03-07T06:44:05.868Z,1124.00
2018-03-07T06:45:05.736Z,1056.00
2018-03-07T06:46:05.602Z,936.00
2018-03-07T06:47:05.478Z,880.00
2018-03-07T06:48:05.338Z,880.00
2018-03-07T06:49:05.206Z,916.00
2018-03-07T06:50:05.075Z,920.00
2018-03-07T06:51:04.951Z,872.00
2018-03-07T06:52:04.818Z,856.00
2018-03-07T06:53:04.680Z,856.00
2018-03-07T06:54:04.551Z,836.00
2018-03-07T06:55:04.419Z,860.00
2018-03-07T06:56:04.288Z,892.00
2018-03-07T06:57:04.154Z,916.00
2018-03-07T06:58:04.025Z,972.00
2018-03-07T06:59:03.892Z,1028.00
2018-03-07T07:00:03.760Z,1044.00
2018-03-07T07:01:03.626Z,1060.00
2018-03-07T07:02:03.497Z,1128.00
2018-03-07T07:03:03.367Z,1212.00
2018-03-07T07:04:03.237Z,1268.00
2018-03-07T07:05:03.102Z,1340.00
2018-03-07T07:06:02.974Z,1384.00
2018-03-07T07:07:02.838Z,1380.00
2018-03-07T07:08:02.711Z,1292.00
2018-03-07T07:09:02.576Z,1188.00
2018-03-07T07:10:02.445Z,1176.00
2018-03-07T07:11:02.315Z,1176.00
2018-03-07T07:12:02.204Z,1168.00
2018-03-07T07:13:02.051Z,1180.00
2018-03-07T07:14:01.919Z,1240.00
2018-03-07T07:15:01.793Z,1332.00
2018-03-07T07:16:01.659Z,1420.00
2018-03-07T07:17:01.526Z,1488.00
2018-03-07T07:18:01.392Z,1544.00
2018-03-07T07:19:01.261Z,1620.00
2018-03-07T07:20:01.130Z,1712.00
2018-03-07T07:21:00.998Z,1760.00
2018-03-07T07:22:00.866Z,1760.00
2018-03-07T07:23:00.748Z,1760.00
2018-03-07T07:24:00.605Z,1772.00
2018-03-07T07:25:00.477Z,1792.00
2018-03-07T07:26:00.344Z,1816.00
2018-03-07T07:27:00.211Z,1828.00
2018-03-07T07:28:00.080Z,1808.00
2018-03-07T07:28:59.948Z,1768.00
2018-03-07T07:29:59.819Z,1744.00
2018-03-07T07:30:59.686Z,1744.00
2018-03-07T07:31:59.555Z,1768.00
2018-03-07T07:32:59.424Z,1788.00
2018-03-07T07:33:59.294Z,1812.00
2018-03-07T07:34:59.163Z,1848.00
2018-03-07T07:35:59.033Z,1908.00
2018-03-07T07:36:58.900Z,2012.00
2018-03-07T07:37:58.769Z,2148.00
2018-03-07T07:38:58.641Z,2280.00
2018-03-07T07:39:58.510Z,2372.00
2018-03-07T07:40:58.386Z,2404.00
2018-03-07T07:41:58.249Z,2436.00
2018-03-07T07:42:58.117Z,2488.00
2018-03-07T07:43:57.990Z,2548.00
2018-03-07T07:44:57.855Z,2632.00
2018-03-07T07:45:57.725Z,2724.00
2018-03-07T07:46:57.593Z,2820.00
2018-03-07T07:47:57.463Z,2920.00
2018-03-07T07:48:57.331Z,2972.00
2018-03-07T07:49:57.198Z,2992.00
2018-03-07T07:50:57.073Z,3020.00
2018-03-07T07:51:56.940Z,3092.00
2018-03-07T07:52:56.810Z,2736.00
2018-03-07T07:53:56.681Z,2952.00
2018-03-07T07:54:56.548Z,3216.00
2018-03-07T07:55:56.417Z,3496.00
2018-03-07T07:56:56.287Z,3888.00
2018-03-07T07:57:56.159Z,4324.00
2018-03-07T07:58:56.027Z,4680.00
2018-03-07T07:59:55.910Z,4848.00
2018-03-07T08:00:55.767Z,4844.00
2018-03-07T08:01:55.635Z,4720.00
2018-03-07T08:02:55.508Z,4516.00
2018-03-07T08:03:55.376Z,4308.00
2018-03-07T08:04:55.246Z,4104.00
2018-03-07T08:05:55.148Z,3908.00
2018-03-07T08:06:54.989Z,3760.00
2018-03-07T08:07:54.858Z,3712.00
2018-03-07T08:08:54.728Z,3736.00
2018-03-07T08:09:54.597Z,3776.00
2018-03-07T08:10:54.468Z,3832.00
2018-03-07T08:11:54.340Z,3880.00
2018-03-07T08:12:54.209Z,3876.00
2018-03-07T08:13:54.080Z,3852.00
2018-03-07T08:14:53.947Z,3872.00
2018-03-07T08:15:53.819Z,3964.00
2018-03-07T08:16:53.689Z,4152.00
2018-03-07T08:17:53.561Z,4468.00
2018-03-07T08:18:53.429Z,4620.00
2018-03-07T08:19:53.302Z,4660.00
2018-03-07T08:20:53.167Z,4720.00
2018-03-07T08:21:53.041Z,4708.00
2018-03-07T08:22:52.909Z,4680.00
2018-03-07T08:23:52.781Z,4632.00
2018-03-07T08:24:52.649Z,4568.00
2018-03-07T08:25:52.519Z,4676.00
2018-03-07T08:26:52.388Z,4908.00
2018-03-07T08:27:52.260Z,5152.00
2018-03-07T08:28:52.131Z,5364.00
2018-03-07T08:29:52.002Z,5596.00
2018-03-07T08:30:51.874Z,5664.00
2018-03-07T08:31:51.743Z,5792.00
2018-03-07T08:32:51.615Z,5824.00
2018-03-07T08:33:51.484Z,5724.00
2018-03-07T08:34:51.357Z,5708.00
2018-03-07T08:35:51.227Z,5736.00
2018-03-07T08:36:51.099Z,5820.00
2018-03-07T08:37:50.975Z,5904.00
2018-03-07T08:38:50.839Z,5996.00
2018-03-07T08:39:50.711Z,6052.00
2018-03-07T08:40:50.584Z,6100.00
2018-03-07T08:41:50.456Z,6168.00
2018-03-07T08:42:50.326Z,6208.00
2018-03-07T08:43:50.197Z,6200.00
2018-03-07T08:44:50.067Z,6212.00
2018-03-07T08:45:49.940Z,6264.00
2018-03-07T08:46:49.811Z,6352.00
2018-03-07T08:47:49.689Z,6464.00
2018-03-07T08:48:49.554Z,6552.00
2018-03-07T08:49:49.427Z,6636.00
2018-03-07T08:50:49.298Z,6716.00
2018-03-07T08:51:49.167Z,6820.00
2018-03-07T08:52:49.038Z,6880.00
2018-03-07T08:53:48.909Z,6932.00
2018-03-07T08:54:48.791Z,6924.00
2018-03-07T08:55:48.655Z,6916.00
2018-03-07T08:56:48.524Z,6864.00
2018-03-07T08:57:48.398Z,6768.00
2018-03-07T08:58:48.270Z,6712.00
2018-03-07T08:59:48.145Z,6640.00
2018-03-07T09:00:48.012Z,6556.00
2018-03-07T09:01:47.884Z,6440.00
2018-03-07T09:02:47.755Z,6328.00
2018-03-07T09:03:47.625Z,6248.00
2018-03-07T09:04:47.497Z,6140.00
2018-03-07T09:05:47.370Z,6040.00
2018-03-07T09:06:47.240Z,5956.00
2018-03-07T09:07:47.113Z,5960.00
2018-03-07T09:08:46.987Z,5956.00
2018-03-07T09:09:46.855Z,5996.00
2018-03-07T09:10:46.725Z,5964.00
2018-03-07T09:11:46.601Z,5920.00
2018-03-07T09:12:46.469Z,5792.00
2018-03-07T09:13:46.343Z,5632.00
2018-03-07T09:14:46.217Z,5452.00
2018-03-07T09:15:46.084Z,5264.00
2018-03-07T09:16:45.954Z,5048.00
2018-03-07T09:17:45.832Z,4808.00
2018-03-07T09:18:45.698Z,4524.00
2018-03-07T09:19:45.568Z,4284.00
2018-03-07T09:20:45.439Z,4188.00
2018-03-07T09:21:45.320Z,3876.00
2018-03-07T09:22:45.181Z,3680.00
2018-03-07T09:23:45.054Z,3712.00
2018-03-07T09:24:44.921Z,3592.00
2018-03-07T09:25:44.790Z,3376.00
2018-03-07T09:26:44.662Z,3468.00
2018-03-07T09:27:44.540Z,3444.00
2018-03-07T09:28:44.405Z,3156.00
2018-03-07T09:29:44.274Z,2980.00
2018-03-07T09:30:44.145Z,2552.00
2018-03-07T09:31:44.014Z,2160.00
2018-03-07T09:32:43.884Z,2152.00
2018-03-07T09:33:43.755Z,2012.00
2018-03-07T09:34:43.624Z,1836.00
2018-03-07T09:35:43.496Z,1872.00
2018-03-07T09:36:43.365Z,2016.00
2018-03-07T09:37:43.237Z,1928.00
2018-03-07T09:38:43.107Z,1800.00
2018-03-07T09:39:42.976Z,1724.00
2018-03-07T09:40:42.843Z,1704.00
2018-03-07T09:41:42.713Z,1764.00
2018-03-07T09:42:42.583Z,1796.00
2018-03-07T09:43:42.452Z,1924.00
2018-03-07T09:44:42.321Z,1984.00
2018-03-07T09:45:42.192Z,2008.00
2018-03-07T09:46:42.061Z,2188.00
2018-03-07T09:47:41.930Z,2340.00
2018-03-07T09:48:41.810Z,2300.00
2018-03-07T09:49:41.673Z,2244.00
2018-03-07T09:50:41.541Z,2344.00
2018-03-07T09:51:41.407Z,2464.00
2018-03-07T09:52:41.277Z,2560.00
2018-03-07T09:53:41.147Z,2564.00
2018-03-07T09:54:41.018Z,2644.00
2018-03-07T09:55:40.885Z,2720.00
2018-03-07T09:56:40.751Z,2856.00
2018-03-07T09:57:40.623Z,2848.00
2018-03-07T09:58:40.495Z,2812.00
2018-03-07T09:59:40.364Z,2756.00
2018-03-07T10:00:40.252Z,2648.00
2018-03-07T10:01:40.103Z,2440.00
2018-03-07T10:02:39.972Z,2272.00
2018-03-07T10:03:39.838Z,2188.00
2018-03-07T10:04:39.706Z,2188.00
2018-03-07T10:05:39.579Z,2380.00
2018-03-07T10:06:39.447Z,2560.00
2018-03-07T10:07:39.317Z,2676.00
2018-03-07T10:08:39.183Z,2768.00
2018-03-07T10:09:39.056Z,2580.00
2018-03-07T10:10:38.924Z,2672.00
2018-03-07T10:11:38.794Z,2764.00
2018-03-07T10:12:38.659Z,2892.00
2018-03-07T10:13:38.534Z,2792.00
2018-03-07T10:14:38.401Z,2784.00
2018-03-07T10:15:38.267Z,2820.00
2018-03-07T10:16:38.150Z,2456.00
2018-03-07T10:17:38.005Z,2416.00
2018-03-07T10:18:37.877Z,2552.00
2018-03-07T10:19:37.749Z,2548.00
2018-03-07T10:20:37.617Z,2652.00
2018-03-07T10:21:37.487Z,2824.00
2018-03-07T10:22:37.354Z,2684.00
2018-03-07T10:23:37.229Z,2660.00
2018-03-07T10:24:37.093Z,2596.00
2018-03-07T10:25:36.963Z,2120.00
2018-03-07T10:26:36.844Z,2008.00
2018-03-07T10:27:36.703Z,1848.00
2018-03-07T10:28:36.625Z,1696.00
2018-03-07T10:29:36.440Z,1692.00
2018-03-07T10:30:36.310Z,1740.00
2018-03-07T10:31:36.180Z,1596.00
2018-03-07T10:32:36.049Z,1564.00
2018-03-07T10:33:35.920Z,1584.00
2018-03-07T10:34:35.790Z,1628.00
2018-03-07T10:35:35.656Z,1612.00
2018-03-07T10:36:35.527Z,1644.00
2018-03-07T10:37:35.400Z,1716.00
2018-03-07T10:38:35.264Z,1804.00
2018-03-07T10:39:35.181Z,1920.00
2018-03-07T10:40:35.004Z,1848.00
2018-03-07T10:41:34.874Z,2080.00
2018-03-07T10:42:34.745Z,2108.00
2018-03-07T10:43:34.613Z,2068.00
2018-03-07T10:44:34.479Z,1892.00
2018-03-07T10:45:34.354Z,1948.00
2018-03-07T10:46:34.219Z,1980.00
2018-03-07T10:47:34.090Z,1824.00
2018-03-07T10:48:33.957Z,1804.00
2018-03-07T10:49:33.827Z,1708.00
2018-03-07T10:50:33.695Z,1764.00
2018-03-07T10:51:33.565Z,1760.00
2018-03-07T10:52:33.435Z,1776.00
2018-03-07T10:53:33.301Z,1764.00
2018-03-07T10:54:33.173Z,1744.00
2018-03-07T10:55:33.041Z,1704.00
2018-03-07T10:56:32.909Z,1668.00
2018-03-07T10:57:32.778Z,1692.00
2018-03-07T10:58:32.648Z,1712.00
2018-03-07T10:59:32.516Z,1772.00
2018-03-07T11:00:32.386Z,1900.00
2018-03-07T11:01:32.254Z,2024.00
2018-03-07T11:02:32.130Z,2092.00
2018-03-07T11:03:31.992Z,2060.00
2018-03-07T11:04:31.860Z,2016.00
2018-03-07T11:05:31.728Z,2032.00
2018-03-07T11:06:31.599Z,2032.00
2018-03-07T11:07:31.465Z,2088.00
2018-03-07T11:08:31.336Z,2216.00
2018-03-07T11:09:31.203Z,2352.00
2018-03-07T11:10:31.074Z,2388.00
2018-03-07T11:11:30.945Z,2384.00
2018-03-07T11:12:30.810Z,2328.00
2018-03-07T11:13:30.678Z,2356.00
2018-03-07T11:14:30.554Z,2468.00
2018-03-07T11:15:30.417Z,2416.00
2018-03-07T11:16:30.288Z,2348.00
2018-03-07T11:17:30.153Z,2408.00
2018-03-07T11:18:30.024Z,2480.00
2018-03-07T11:19:29.893Z,2540.00
2018-03-07T11:20:29.761Z,2636.00
2018-03-07T11:21:29.635Z,2616.00
2018-03-07T11:22:29.508Z,2416.00
2018-03-07T11:23:29.372Z,2360.00
2018-03-07T11:24:29.235Z,2140.00
2018-03-07T11:25:29.105Z,1996.00
2018-03-07T11:26:28.973Z,2088.00
2018-03-07T11:27:28.842Z,2460.00
2018-03-07T11:28:28.708Z,2644.00
2018-03-07T11:29:28.580Z,2724.00
2018-03-07T11:30:28.447Z,2772.00
2018-03-07T11:31:28.316Z,2856.00
2018-03-07T11:32:28.189Z,2980.00
2018-03-07T11:33:28.057Z,2700.00
2018-03-07T11:34:27.924Z,2348.00
2018-03-07T11:35:27.797Z,2588.00
2018-03-07T11:36:27.662Z,2960.00
2018-03-07T11:37:27.530Z,3068.00
2018-03-07T11:38:27.398Z,3068.00
2018-03-07T11:39:27.267Z,3088.00
2018-03-07T11:40:27.137Z,3036.00
2018-03-07T11:41:27.005Z,3040.00
2018-03-07T11:42:26.876Z,3032.00
2018-03-07T11:43:26.745Z,2908.00
2018-03-07T11:44:26.614Z,3012.00
2018-03-07T11:45:26.514Z,3016.00
2018-03-07T11:46:26.349Z,3028.00
2018-03-07T11:47:26.223Z,3048.00
2018-03-07T11:48:26.089Z,3080.00
2018-03-07T11:49:25.959Z,3100.00
2018-03-07T11:50:25.828Z,3132.00
2018-03-07T11:51:25.698Z,3176.00
2018-03-07T11:52:25.566Z,3136.00
2018-03-07T11:53:25.435Z,2548.00
2018-03-07T11:54:25.305Z,2012.00
2018-03-07T11:55:25.192Z,2116.00
2018-03-07T11:56:25.097Z,2248.00
2018-03-07T11:57:24.916Z,2340.00
2018-03-07T11:58:24.784Z,2452.00
2018-03-07T11:59:24.658Z,2572.00
2018-03-07T12:00:24.522Z,2604.00
2018-03-07T12:01:24.394Z,2656.00
2018-03-07T12:02:24.259Z,2560.00
2018-03-07T12:03:24.128Z,2440.00
2018-03-07T12:04:23.996Z,2300.00
2018-03-07T12:05:23.871Z,2352.00
2018-03-07T12:06:23.735Z,2500.00
2018-03-07T12:07:23.607Z,2332.00
2018-03-07T12:08:23.474Z,2088.00
2018-03-07T12:09:23.345Z,2032.00
2018-03-07T12:10:23.215Z,2072.00
2018-03-07T12:11:23.084Z,2084.00
2018-03-07T12:12:22.955Z,2176.00
2018-03-07T12:13:22.821Z,2396.00
2018-03-07T12:14:22.692Z,2560.00
2018-03-07T12:15:22.558Z,2576.00
2018-03-07T12:16:22.429Z,2556.00
2018-03-07T12:17:22.298Z,2588.00
2018-03-07T12:18:22.166Z,2348.00
2018-03-07T12:19:22.072Z,2248.00
2018-03-07T12:20:21.931Z,2396.00
2018-03-07T12:21:21.783Z,2348.00
2018-03-07T12:22:21.643Z,2288.00
2018-03-07T12:23:21.512Z,2344.00
2018-03-07T12:24:21.425Z,2504.00
2018-03-07T12:25:21.292Z,2540.00
2018-03-07T12:26:21.122Z,2592.00
2018-03-07T12:27:20.990Z,2692.00
2018-03-07T12:28:20.856Z,2744.00
2018-03-07T12:29:20.729Z,2784.00
2018-03-07T12:30:20.595Z,2792.00
2018-03-07T12:31:20.470Z,2812.00
2018-03-07T12:32:20.334Z,2828.00
2018-03-07T12:33:20.202Z,2828.00
2018-03-07T12:34:20.074Z,2800.00
2018-03-07T12:35:19.942Z,2840.00
2018-03-07T12:36:19.809Z,2904.00
2018-03-07T12:37:19.680Z,2920.00
2018-03-07T12:38:19.553Z,2816.00